sensor_id;sensor_type;location;lat;lon;timestamp;P1;durP1;ratioP1;P2;durP2;ratioP2
67839;SDS011;54636;51.684;5.142;2023-02-15T00:00:53;42.80;;;23.00;;
67839;SDS011;54636;51.684;5.142;2023-02-15T00:03:21;39.00;;;22.50;;
67839;SDS011;54636;51.684;5.142;2023-02-15T00:05:47;35.63;;;22.13;;
67839;SDS011;54636;51.684;5.142;2023-02-15T00:08:12;39.28;;;22.85;;
67839;SDS011;54636;51.684;5.142;2023-02-15T00:10:37;41.47;;;22.85;;
67839;SDS011;54636;51.684;5.142;2023-02-15T00:13:03;43.67;;;22.42;;
67839;SDS011;54636;51.684;5.142;2023-02-15T00:15:28;38.88;;;23.45;;
67839;SDS011;54636;51.684;5.142;2023-02-15T00:17:54;39.38;;;22.50;;
67839;SDS011;54636;51.684;5.142;2023-02-15T00:20:21;36.47;;;22.50;;
67839;SDS011;54636;51.684;5.142;2023-02-15T00:22:47;34.08;;;22.08;;
67839;SDS011;54636;51.684;5.142;2023-02-15T00:25:12;45.10;;;24.65;;
67839;SDS011;54636;51.684;5.142;2023-02-15T00:27:38;38.55;;;24.58;;
67839;SDS011;54636;51.684;5.142;2023-02-15T00:30:03;39.75;;;23.48;;
67839;SDS011;54636;51.684;5.142;2023-02-15T00:32:29;38.67;;;22.25;;
67839;SDS011;54636;51.684;5.142;2023-02-15T00:34:54;36.20;;;22.90;;
67839;SDS011;54636;51.684;5.142;2023-02-15T00:37:19;44.88;;;22.92;;
67839;SDS011;54636;51.684;5.142;2023-02-15T00:39:45;42.10;;;23.15;;
67839;SDS011;54636;51.684;5.142;2023-02-15T00:42:10;37.83;;;22.00;;
67839;SDS011;54636;51.684;5.142;2023-02-15T00:44:36;36.90;;;22.92;;
67839;SDS011;54636;51.684;5.142;2023-02-15T00:47:01;40.30;;;22.35;;
67839;SDS011;54636;51.684;5.142;2023-02-15T00:49:27;39.85;;;22.30;;
67839;SDS011;54636;51.684;5.142;2023-02-15T00:51:52;40.30;;;23.00;;
67839;SDS011;54636;51.684;5.142;2023-02-15T00:54:17;43.67;;;24.00;;
67839;SDS011;54636;51.684;5.142;2023-02-15T00:56:43;37.65;;;22.95;;
67839;SDS011;54636;51.684;5.142;2023-02-15T00:59:08;36.33;;;23.02;;
67839;SDS011;54636;51.684;5.142;2023-02-15T01:01:34;40.28;;;23.25;;
67839;SDS011;54636;51.684;5.142;2023-02-15T01:03:59;43.42;;;23.77;;
67839;SDS011;54636;51.684;5.142;2023-02-15T01:06:25;41.05;;;22.48;;
67839;SDS011;54636;51.684;5.142;2023-02-15T01:08:52;35.35;;;23.05;;
67839;SDS011;54636;51.684;5.142;2023-02-15T01:11:19;40.45;;;23.05;;
67839;SDS011;54636;51.684;5.142;2023-02-15T01:13:49;39.38;;;23.45;;
67839;SDS011;54636;51.684;5.142;2023-02-15T01:16:16;43.15;;;23.60;;
67839;SDS011;54636;51.684;5.142;2023-02-15T01:18:41;42.75;;;23.70;;
67839;SDS011;54636;51.684;5.142;2023-02-15T01:21:14;43.63;;;24.88;;
67839;SDS011;54636;51.684;5.142;2023-02-15T01:23:41;40.03;;;23.35;;
67839;SDS011;54636;51.684;5.142;2023-02-15T01:26:07;43.50;;;23.50;;
67839;SDS011;54636;51.684;5.142;2023-02-15T01:28:34;45.38;;;24.25;;
67839;SDS011;54636;51.684;5.142;2023-02-15T01:31:03;48.17;;;24.83;;
67839;SDS011;54636;51.684;5.142;2023-02-15T01:33:30;39.15;;;23.00;;
67839;SDS011;54636;51.684;5.142;2023-02-15T01:35:56;42.05;;;24.23;;
67839;SDS011;54636;51.684;5.142;2023-02-15T01:38:23;45.10;;;26.35;;
67839;SDS011;54636;51.684;5.142;2023-02-15T01:40:52;45.60;;;25.20;;
67839;SDS011;54636;51.684;5.142;2023-02-15T01:43:18;48.45;;;26.85;;
67839;SDS011;54636;51.684;5.142;2023-02-15T01:45:44;41.33;;;24.67;;
67839;SDS011;54636;51.684;5.142;2023-02-15T01:48:17;40.90;;;24.75;;
67839;SDS011;54636;51.684;5.142;2023-02-15T01:50:54;42.72;;;25.50;;
67839;SDS011;54636;51.684;5.142;2023-02-15T01:55:50;43.85;;;26.88;;
67839;SDS011;54636;51.684;5.142;2023-02-15T01:58:21;43.22;;;25.40;;
67839;SDS011;54636;51.684;5.142;2023-02-15T02:00:49;41.67;;;25.20;;
67839;SDS011;54636;51.684;5.142;2023-02-15T02:03:15;42.22;;;25.13;;
67839;SDS011;54636;51.684;5.142;2023-02-15T02:05:40;51.72;;;27.88;;
67839;SDS011;54636;51.684;5.142;2023-02-15T02:08:06;46.35;;;24.80;;
67839;SDS011;54636;51.684;5.142;2023-02-15T02:10:34;45.90;;;26.08;;
67839;SDS011;54636;51.684;5.142;2023-02-15T02:13:02;43.50;;;25.25;;
67839;SDS011;54636;51.684;5.142;2023-02-15T02:18:09;39.35;;;23.85;;
67839;SDS011;54636;51.684;5.142;2023-02-15T02:20:52;44.28;;;23.40;;
67839;SDS011;54636;51.684;5.142;2023-02-15T02:23:29;40.85;;;23.75;;
67839;SDS011;54636;51.684;5.142;2023-02-15T02:28:59;42.42;;;23.30;;
67839;SDS011;54636;51.684;5.142;2023-02-15T02:40:13;42.85;;;23.33;;
67839;SDS011;54636;51.684;5.142;2023-02-15T02:42:54;48.00;;;24.07;;
67839;SDS011;54636;51.684;5.142;2023-02-15T02:45:26;37.97;;;23.55;;
67839;SDS011;54636;51.684;5.142;2023-02-15T02:48:07;45.90;;;24.65;;
67839;SDS011;54636;51.684;5.142;2023-02-15T02:50:54;37.75;;;23.08;;
67839;SDS011;54636;51.684;5.142;2023-02-15T02:53:20;45.45;;;24.73;;
67839;SDS011;54636;51.684;5.142;2023-02-15T02:58:38;36.50;;;21.77;;
67839;SDS011;54636;51.684;5.142;2023-02-15T03:03:59;14.23;;;8.90;;
67839;SDS011;54636;51.684;5.142;2023-02-15T03:06:42;26.92;;;15.98;;
67839;SDS011;54636;51.684;5.142;2023-02-15T03:09:24;35.58;;;20.85;;
67839;SDS011;54636;51.684;5.142;2023-02-15T03:12:00;40.00;;;22.73;;
67839;SDS011;54636;51.684;5.142;2023-02-15T03:14:28;40.13;;;24.40;;
67839;SDS011;54636;51.684;5.142;2023-02-15T03:16:53;42.45;;;25.33;;
67839;SDS011;54636;51.684;5.142;2023-02-15T03:19:30;38.80;;;24.30;;
67839;SDS011;54636;51.684;5.142;2023-02-15T03:22:00;45.92;;;25.38;;
67839;SDS011;54636;51.684;5.142;2023-02-15T03:27:03;49.03;;;26.58;;
67839;SDS011;54636;51.684;5.142;2023-02-15T03:29:35;46.05;;;25.45;;
67839;SDS011;54636;51.684;5.142;2023-02-15T03:32:02;39.33;;;24.33;;
67839;SDS011;54636;51.684;5.142;2023-02-15T03:34:30;45.15;;;25.08;;
67839;SDS011;54636;51.684;5.142;2023-02-15T03:36:58;46.53;;;26.33;;
67839;SDS011;54636;51.684;5.142;2023-02-15T03:39:56;46.92;;;26.45;;
67839;SDS011;54636;51.684;5.142;2023-02-15T03:43:01;41.63;;;23.92;;
67839;SDS011;54636;51.684;5.142;2023-02-15T03:45:48;40.83;;;22.70;;
67839;SDS011;54636;51.684;5.142;2023-02-15T03:48:30;44.33;;;27.20;;
67839;SDS011;54636;51.684;5.142;2023-02-15T03:51:05;42.38;;;19.08;;
67839;SDS011;54636;51.684;5.142;2023-02-15T03:53:53;47.65;;;26.60;;
67839;SDS011;54636;51.684;5.142;2023-02-15T03:56:20;45.85;;;26.65;;
67839;SDS011;54636;51.684;5.142;2023-02-15T03:58:46;53.95;;;27.00;;
67839;SDS011;54636;51.684;5.142;2023-02-15T04:01:34;53.35;;;27.10;;
67839;SDS011;54636;51.684;5.142;2023-02-15T04:04:27;43.65;;;27.13;;
67839;SDS011;54636;51.684;5.142;2023-02-15T04:06:56;52.40;;;25.33;;
67839;SDS011;54636;51.684;5.142;2023-02-15T04:09:21;41.55;;;24.17;;
67839;SDS011;54636;51.684;5.142;2023-02-15T04:12:05;51.92;;;25.92;;
67839;SDS011;54636;51.684;5.142;2023-02-15T04:14:31;43.40;;;23.90;;
67839;SDS011;54636;51.684;5.142;2023-02-15T04:17:15;40.40;;;23.75;;
67839;SDS011;54636;51.684;5.142;2023-02-15T04:19:40;40.67;;;23.90;;
67839;SDS011;54636;51.684;5.142;2023-02-15T04:22:24;43.22;;;25.08;;
67839;SDS011;54636;51.684;5.142;2023-02-15T04:25:08;48.60;;;24.95;;
67839;SDS011;54636;51.684;5.142;2023-02-15T04:27:34;39.20;;;23.48;;
67839;SDS011;54636;51.684;5.142;2023-02-15T04:30:00;39.95;;;25.52;;
67839;SDS011;54636;51.684;5.142;2023-02-15T04:32:25;44.58;;;26.25;;
67839;SDS011;54636;51.684;5.142;2023-02-15T04:34:50;42.85;;;25.17;;
67839;SDS011;54636;51.684;5.142;2023-02-15T04:37:16;39.30;;;25.13;;
67839;SDS011;54636;51.684;5.142;2023-02-15T04:39:41;46.45;;;25.30;;
67839;SDS011;54636;51.684;5.142;2023-02-15T04:42:07;44.22;;;25.33;;
67839;SDS011;54636;51.684;5.142;2023-02-15T04:44:32;38.05;;;24.58;;
67839;SDS011;54636;51.684;5.142;2023-02-15T04:46:57;35.20;;;22.35;;
67839;SDS011;54636;51.684;5.142;2023-02-15T04:49:23;21.67;;;14.10;;
67839;SDS011;54636;51.684;5.142;2023-02-15T04:51:48;37.65;;;22.85;;
67839;SDS011;54636;51.684;5.142;2023-02-15T04:54:14;31.35;;;21.33;;
67839;SDS011;54636;51.684;5.142;2023-02-15T04:56:39;37.53;;;24.20;;
67839;SDS011;54636;51.684;5.142;2023-02-15T04:59:05;34.15;;;22.08;;
67839;SDS011;54636;51.684;5.142;2023-02-15T05:01:30;34.42;;;22.55;;
67839;SDS011;54636;51.684;5.142;2023-02-15T05:03:56;31.63;;;20.95;;
67839;SDS011;54636;51.684;5.142;2023-02-15T05:06:21;36.80;;;24.00;;
67839;SDS011;54636;51.684;5.142;2023-02-15T05:08:47;36.85;;;22.33;;
67839;SDS011;54636;51.684;5.142;2023-02-15T05:11:12;35.53;;;22.98;;
67839;SDS011;54636;51.684;5.142;2023-02-15T05:13:38;40.65;;;23.10;;
67839;SDS011;54636;51.684;5.142;2023-02-15T05:16:03;37.03;;;23.48;;
67839;SDS011;54636;51.684;5.142;2023-02-15T05:18:29;39.72;;;24.67;;
67839;SDS011;54636;51.684;5.142;2023-02-15T05:20:54;35.58;;;23.23;;
67839;SDS011;54636;51.684;5.142;2023-02-15T05:23:19;41.47;;;24.70;;
67839;SDS011;54636;51.684;5.142;2023-02-15T05:25:48;42.00;;;25.63;;
67839;SDS011;54636;51.684;5.142;2023-02-15T05:28:38;38.63;;;25.10;;
67839;SDS011;54636;51.684;5.142;2023-02-15T05:31:08;41.03;;;23.38;;
67839;SDS011;54636;51.684;5.142;2023-02-15T05:33:36;36.70;;;23.20;;
67839;SDS011;54636;51.684;5.142;2023-02-15T05:36:02;39.90;;;24.45;;
67839;SDS011;54636;51.684;5.142;2023-02-15T05:38:28;38.05;;;23.38;;
67839;SDS011;54636;51.684;5.142;2023-02-15T05:40:54;40.08;;;23.58;;
67839;SDS011;54636;51.684;5.142;2023-02-15T05:43:19;43.67;;;25.65;;
67839;SDS011;54636;51.684;5.142;2023-02-15T05:45:46;34.28;;;23.33;;
67839;SDS011;54636;51.684;5.142;2023-02-15T05:48:12;35.72;;;22.70;;
67839;SDS011;54636;51.684;5.142;2023-02-15T05:50:41;37.88;;;23.60;;
67839;SDS011;54636;51.684;5.142;2023-02-15T05:53:07;33.70;;;23.17;;
67839;SDS011;54636;51.684;5.142;2023-02-15T05:55:32;32.83;;;23.25;;
67839;SDS011;54636;51.684;5.142;2023-02-15T05:57:58;26.50;;;20.05;;
67839;SDS011;54636;51.684;5.142;2023-02-15T06:00:23;29.20;;;17.48;;
67839;SDS011;54636;51.684;5.142;2023-02-15T06:02:50;29.65;;;20.98;;
67839;SDS011;54636;51.684;5.142;2023-02-15T06:05:16;36.28;;;22.38;;
67839;SDS011;54636;51.684;5.142;2023-02-15T06:07:44;36.00;;;21.77;;
67839;SDS011;54636;51.684;5.142;2023-02-15T06:10:10;33.00;;;23.02;;
67839;SDS011;54636;51.684;5.142;2023-02-15T06:12:36;34.55;;;22.27;;
67839;SDS011;54636;51.684;5.142;2023-02-15T06:15:01;33.67;;;20.90;;
67839;SDS011;54636;51.684;5.142;2023-02-15T06:17:27;33.70;;;21.75;;
67839;SDS011;54636;51.684;5.142;2023-02-15T06:19:53;31.65;;;19.83;;
67839;SDS011;54636;51.684;5.142;2023-02-15T06:22:18;35.35;;;21.80;;
67839;SDS011;54636;51.684;5.142;2023-02-15T06:24:45;31.27;;;20.85;;
67839;SDS011;54636;51.684;5.142;2023-02-15T06:27:11;33.13;;;21.35;;
67839;SDS011;54636;51.684;5.142;2023-02-15T06:29:36;32.53;;;19.83;;
67839;SDS011;54636;51.684;5.142;2023-02-15T06:32:01;37.15;;;20.85;;
67839;SDS011;54636;51.684;5.142;2023-02-15T06:34:27;34.78;;;21.35;;
67839;SDS011;54636;51.684;5.142;2023-02-15T06:36:52;36.70;;;22.20;;
67839;SDS011;54636;51.684;5.142;2023-02-15T06:39:18;37.88;;;23.67;;
67839;SDS011;54636;51.684;5.142;2023-02-15T06:41:43;40.67;;;23.50;;
67839;SDS011;54636;51.684;5.142;2023-02-15T06:44:09;40.17;;;23.15;;
67839;SDS011;54636;51.684;5.142;2023-02-15T06:46:34;41.35;;;24.40;;
67839;SDS011;54636;51.684;5.142;2023-02-15T06:48:59;47.15;;;25.90;;
67839;SDS011;54636;51.684;5.142;2023-02-15T06:51:25;40.30;;;23.02;;
67839;SDS011;54636;51.684;5.142;2023-02-15T06:53:51;27.10;;;15.30;;
67839;SDS011;54636;51.684;5.142;2023-02-15T06:56:16;40.53;;;24.05;;
67839;SDS011;54636;51.684;5.142;2023-02-15T06:58:42;34.15;;;19.15;;
67839;SDS011;54636;51.684;5.142;2023-02-15T07:01:08;43.83;;;24.92;;
67839;SDS011;54636;51.684;5.142;2023-02-15T07:03:34;49.60;;;24.80;;
67839;SDS011;54636;51.684;5.142;2023-02-15T07:06:01;42.55;;;25.73;;
67839;SDS011;54636;51.684;5.142;2023-02-15T07:08:28;43.53;;;24.73;;
67839;SDS011;54636;51.684;5.142;2023-02-15T07:10:54;46.20;;;23.35;;
67839;SDS011;54636;51.684;5.142;2023-02-15T07:13:43;44.35;;;24.10;;
67839;SDS011;54636;51.684;5.142;2023-02-15T07:16:09;40.67;;;23.55;;
67839;SDS011;54636;51.684;5.142;2023-02-15T07:18:35;42.65;;;24.45;;
67839;SDS011;54636;51.684;5.142;2023-02-15T07:21:00;36.35;;;23.33;;
67839;SDS011;54636;51.684;5.142;2023-02-15T07:23:26;43.92;;;24.48;;
67839;SDS011;54636;51.684;5.142;2023-02-15T07:26:00;41.33;;;25.10;;
67839;SDS011;54636;51.684;5.142;2023-02-15T07:28:26;41.90;;;24.13;;
67839;SDS011;54636;51.684;5.142;2023-02-15T07:30:52;49.25;;;25.48;;
67839;SDS011;54636;51.684;5.142;2023-02-15T07:33:18;41.95;;;23.67;;
67839;SDS011;54636;51.684;5.142;2023-02-15T07:35:50;42.00;;;24.15;;
67839;SDS011;54636;51.684;5.142;2023-02-15T07:38:20;55.33;;;26.70;;
67839;SDS011;54636;51.684;5.142;2023-02-15T07:40:47;43.25;;;25.20;;
67839;SDS011;54636;51.684;5.142;2023-02-15T07:43:12;51.17;;;25.42;;
67839;SDS011;54636;51.684;5.142;2023-02-15T07:45:39;46.45;;;25.73;;
67839;SDS011;54636;51.684;5.142;2023-02-15T07:48:05;47.28;;;23.25;;
67839;SDS011;54636;51.684;5.142;2023-02-15T07:50:31;44.20;;;23.80;;
67839;SDS011;54636;51.684;5.142;2023-02-15T07:52:57;46.05;;;25.23;;
67839;SDS011;54636;51.684;5.142;2023-02-15T07:55:23;43.67;;;26.27;;
67839;SDS011;54636;51.684;5.142;2023-02-15T07:57:50;56.03;;;27.23;;
67839;SDS011;54636;51.684;5.142;2023-02-15T08:00:17;16.40;;;10.40;;
67839;SDS011;54636;51.684;5.142;2023-02-15T08:05:38;44.55;;;25.42;;
67839;SDS011;54636;51.684;5.142;2023-02-15T08:08:10;51.67;;;27.50;;
67839;SDS011;54636;51.684;5.142;2023-02-15T08:11:07;51.53;;;26.40;;
67839;SDS011;54636;51.684;5.142;2023-02-15T08:14:03;43.80;;;25.73;;
67839;SDS011;54636;51.684;5.142;2023-02-15T08:16:36;52.55;;;30.15;;
67839;SDS011;54636;51.684;5.142;2023-02-15T08:21:50;48.03;;;25.35;;
67839;SDS011;54636;51.684;5.142;2023-02-15T08:24:19;49.63;;;29.00;;
67839;SDS011;54636;51.684;5.142;2023-02-15T08:26:47;50.88;;;28.83;;
67839;SDS011;54636;51.684;5.142;2023-02-15T08:29:13;50.45;;;29.48;;
67839;SDS011;54636;51.684;5.142;2023-02-15T08:31:40;46.33;;;28.42;;
67839;SDS011;54636;51.684;5.142;2023-02-15T08:34:06;48.33;;;28.98;;
67839;SDS011;54636;51.684;5.142;2023-02-15T08:36:33;50.08;;;32.22;;
67839;SDS011;54636;51.684;5.142;2023-02-15T08:38:59;55.15;;;30.67;;
67839;SDS011;54636;51.684;5.142;2023-02-15T08:41:30;57.95;;;29.98;;
67839;SDS011;54636;51.684;5.142;2023-02-15T08:43:58;50.95;;;30.77;;
67839;SDS011;54636;51.684;5.142;2023-02-15T08:46:26;53.60;;;30.08;;
67839;SDS011;54636;51.684;5.142;2023-02-15T08:48:53;52.92;;;31.42;;
67839;SDS011;54636;51.684;5.142;2023-02-15T08:51:19;54.22;;;29.33;;
67839;SDS011;54636;51.684;5.142;2023-02-15T08:53:49;51.22;;;28.38;;
67839;SDS011;54636;51.684;5.142;2023-02-15T08:56:20;46.97;;;21.52;;
67839;SDS011;54636;51.684;5.142;2023-02-15T08:58:47;50.25;;;30.08;;
67839;SDS011;54636;51.684;5.142;2023-02-15T09:01:14;44.85;;;26.25;;
67839;SDS011;54636;51.684;5.142;2023-02-15T09:03:51;47.45;;;27.90;;
67839;SDS011;54636;51.684;5.142;2023-02-15T09:06:22;52.30;;;31.42;;
67839;SDS011;54636;51.684;5.142;2023-02-15T09:08:48;43.28;;;25.02;;
67839;SDS011;54636;51.684;5.142;2023-02-15T09:11:16;44.75;;;27.67;;
67839;SDS011;54636;51.684;5.142;2023-02-15T09:13:47;43.42;;;26.05;;
67839;SDS011;54636;51.684;5.142;2023-02-15T09:16:14;50.03;;;28.73;;
67839;SDS011;54636;51.684;5.142;2023-02-15T09:18:41;49.08;;;29.60;;
67839;SDS011;54636;51.684;5.142;2023-02-15T09:21:08;56.30;;;29.38;;
67839;SDS011;54636;51.684;5.142;2023-02-15T09:23:36;41.78;;;25.90;;
67839;SDS011;54636;51.684;5.142;2023-02-15T09:26:11;48.97;;;29.88;;
67839;SDS011;54636;51.684;5.142;2023-02-15T09:28:38;46.47;;;29.05;;
67839;SDS011;54636;51.684;5.142;2023-02-15T09:31:14;49.33;;;30.83;;
67839;SDS011;54636;51.684;5.142;2023-02-15T09:33:42;51.78;;;30.33;;
67839;SDS011;54636;51.684;5.142;2023-02-15T09:36:14;49.40;;;28.80;;
67839;SDS011;54636;51.684;5.142;2023-02-15T09:38:44;45.13;;;28.95;;
67839;SDS011;54636;51.684;5.142;2023-02-15T09:43:52;48.55;;;30.13;;
67839;SDS011;54636;51.684;5.142;2023-02-15T09:49:45;48.03;;;30.23;;
67839;SDS011;54636;51.684;5.142;2023-02-15T09:52:27;47.60;;;29.80;;
67839;SDS011;54636;51.684;5.142;2023-02-15T09:55:19;48.42;;;28.67;;
67839;SDS011;54636;51.684;5.142;2023-02-15T10:03:42;49.92;;;28.95;;
67839;SDS011;54636;51.684;5.142;2023-02-15T10:06:43;45.92;;;25.85;;
67839;SDS011;54636;51.684;5.142;2023-02-15T10:17:40;37.50;;;26.60;;
67839;SDS011;54636;51.684;5.142;2023-02-15T10:32:15;41.28;;;26.75;;
67839;SDS011;54636;51.684;5.142;2023-02-15T10:36:49;46.90;;;25.50;;
67839;SDS011;54636;51.684;5.142;2023-02-15T10:39:46;39.13;;;26.58;;
67839;SDS011;54636;51.684;5.142;2023-02-15T10:51:32;44.78;;;26.67;;
67839;SDS011;54636;51.684;5.142;2023-02-15T10:57:14;38.45;;;24.10;;
67839;SDS011;54636;51.684;5.142;2023-02-15T11:07:59;39.45;;;26.40;;
67839;SDS011;54636;51.684;5.142;2023-02-15T11:10:34;36.92;;;24.35;;
67839;SDS011;54636;51.684;5.142;2023-02-15T11:13:09;36.80;;;24.98;;
67839;SDS011;54636;51.684;5.142;2023-02-15T11:18:19;33.22;;;23.63;;
67839;SDS011;54636;51.684;5.142;2023-02-15T11:23:32;36.42;;;23.73;;
67839;SDS011;54636;51.684;5.142;2023-02-15T11:26:02;39.38;;;22.88;;
67839;SDS011;54636;51.684;5.142;2023-02-15T11:28:39;38.85;;;24.25;;
67839;SDS011;54636;51.684;5.142;2023-02-15T11:31:23;36.92;;;23.48;;
67839;SDS011;54636;51.684;5.142;2023-02-15T11:33:56;39.45;;;22.67;;
67839;SDS011;54636;51.684;5.142;2023-02-15T11:36:25;36.47;;;22.80;;
67839;SDS011;54636;51.684;5.142;2023-02-15T11:39:02;40.17;;;24.08;;
67839;SDS011;54636;51.684;5.142;2023-02-15T11:41:34;33.63;;;22.88;;
67839;SDS011;54636;51.684;5.142;2023-02-15T11:44:17;39.33;;;24.23;;
67839;SDS011;54636;51.684;5.142;2023-02-15T11:46:49;38.55;;;22.85;;
67839;SDS011;54636;51.684;5.142;2023-02-15T11:49:35;34.90;;;21.50;;
67839;SDS011;54636;51.684;5.142;2023-02-15T11:52:00;35.90;;;21.98;;
67839;SDS011;54636;51.684;5.142;2023-02-15T11:54:30;40.47;;;24.20;;
67839;SDS011;54636;51.684;5.142;2023-02-15T11:57:33;36.05;;;23.85;;
67839;SDS011;54636;51.684;5.142;2023-02-15T12:03:02;31.80;;;21.20;;
67839;SDS011;54636;51.684;5.142;2023-02-15T12:05:33;37.88;;;24.10;;
67839;SDS011;54636;51.684;5.142;2023-02-15T12:08:09;35.58;;;22.33;;
67839;SDS011;54636;51.684;5.142;2023-02-15T12:10:42;37.83;;;24.40;;
67839;SDS011;54636;51.684;5.142;2023-02-15T12:13:19;30.90;;;19.83;;
67839;SDS011;54636;51.684;5.142;2023-02-15T12:15:48;36.63;;;22.95;;
67839;SDS011;54636;51.684;5.142;2023-02-15T12:21:00;42.92;;;22.85;;
67839;SDS011;54636;51.684;5.142;2023-02-15T12:23:30;35.38;;;21.67;;
67839;SDS011;54636;51.684;5.142;2023-02-15T12:25:57;40.53;;;22.08;;
67839;SDS011;54636;51.684;5.142;2023-02-15T12:28:37;40.83;;;23.55;;
67839;SDS011;54636;51.684;5.142;2023-02-15T12:31:10;36.35;;;23.33;;
67839;SDS011;54636;51.684;5.142;2023-02-15T12:34:03;35.53;;;22.05;;
67839;SDS011;54636;51.684;5.142;2023-02-15T12:36:43;36.53;;;22.35;;
67839;SDS011;54636;51.684;5.142;2023-02-15T12:39:19;37.28;;;22.13;;
67839;SDS011;54636;51.684;5.142;2023-02-15T12:41:57;38.28;;;23.30;;
67839;SDS011;54636;51.684;5.142;2023-02-15T12:44:26;37.80;;;23.00;;
67839;SDS011;54636;51.684;5.142;2023-02-15T12:46:58;38.97;;;23.77;;
67839;SDS011;54636;51.684;5.142;2023-02-15T12:49:26;40.88;;;22.70;;
67839;SDS011;54636;51.684;5.142;2023-02-15T12:52:05;38.10;;;23.88;;
67839;SDS011;54636;51.684;5.142;2023-02-15T12:57:29;38.67;;;21.60;;
67839;SDS011;54636;51.684;5.142;2023-02-15T13:02:26;37.47;;;22.13;;
67839;SDS011;54636;51.684;5.142;2023-02-15T13:04:55;35.22;;;23.05;;
67839;SDS011;54636;51.684;5.142;2023-02-15T13:07:23;37.13;;;23.40;;
67839;SDS011;54636;51.684;5.142;2023-02-15T13:09:54;38.53;;;23.50;;
67839;SDS011;54636;51.684;5.142;2023-02-15T13:12:24;36.50;;;21.42;;
67839;SDS011;54636;51.684;5.142;2023-02-15T13:14:56;41.55;;;21.27;;
67839;SDS011;54636;51.684;5.142;2023-02-15T13:17:27;32.20;;;21.02;;
67839;SDS011;54636;51.684;5.142;2023-02-15T13:20:09;36.20;;;22.70;;
67839;SDS011;54636;51.684;5.142;2023-02-15T13:22:44;33.50;;;20.85;;
67839;SDS011;54636;51.684;5.142;2023-02-15T13:27:46;32.50;;;20.33;;
67839;SDS011;54636;51.684;5.142;2023-02-15T13:30:20;32.13;;;19.92;;
67839;SDS011;54636;51.684;5.142;2023-02-15T13:32:51;37.58;;;20.73;;
67839;SDS011;54636;51.684;5.142;2023-02-15T13:35:21;34.92;;;21.27;;
67839;SDS011;54636;51.684;5.142;2023-02-15T13:40:41;37.22;;;22.65;;
67839;SDS011;54636;51.684;5.142;2023-02-15T13:43:17;34.83;;;21.30;;
67839;SDS011;54636;51.684;5.142;2023-02-15T13:51:32;31.15;;;21.08;;
67839;SDS011;54636;51.684;5.142;2023-02-15T13:59:47;34.88;;;20.63;;
67839;SDS011;54636;51.684;5.142;2023-02-15T14:08:37;31.45;;;20.17;;
67839;SDS011;54636;51.684;5.142;2023-02-15T14:19:35;35.47;;;22.20;;
67839;SDS011;54636;51.684;5.142;2023-02-15T14:22:54;34.65;;;21.63;;
67839;SDS011;54636;51.684;5.142;2023-02-15T14:25:25;36.10;;;22.00;;
67839;SDS011;54636;51.684;5.142;2023-02-15T14:30:49;34.80;;;21.13;;
67839;SDS011;54636;51.684;5.142;2023-02-15T14:35:50;30.58;;;20.38;;
67839;SDS011;54636;51.684;5.142;2023-02-15T14:48:55;38.35;;;22.38;;
67839;SDS011;54636;51.684;5.142;2023-02-15T14:56:43;36.28;;;23.33;;
67839;SDS011;54636;51.684;5.142;2023-02-15T14:59:21;39.75;;;22.42;;
67839;SDS011;54636;51.684;5.142;2023-02-15T15:01:58;30.98;;;19.98;;
67839;SDS011;54636;51.684;5.142;2023-02-15T15:04:37;36.90;;;21.38;;
67839;SDS011;54636;51.684;5.142;2023-02-15T15:09:45;36.22;;;21.65;;
67839;SDS011;54636;51.684;5.142;2023-02-15T15:12:14;37.75;;;21.73;;
67839;SDS011;54636;51.684;5.142;2023-02-15T15:14:46;33.30;;;21.02;;
67839;SDS011;54636;51.684;5.142;2023-02-15T15:25:41;37.22;;;22.35;;
67839;SDS011;54636;51.684;5.142;2023-02-15T15:37:17;45.85;;;22.00;;
67839;SDS011;54636;51.684;5.142;2023-02-15T15:50:17;37.08;;;22.73;;
67839;SDS011;54636;51.684;5.142;2023-02-15T15:52:46;38.83;;;21.88;;
67839;SDS011;54636;51.684;5.142;2023-02-15T16:02:51;33.03;;;22.08;;
67839;SDS011;54636;51.684;5.142;2023-02-15T16:05:18;41.63;;;22.20;;
67839;SDS011;54636;51.684;5.142;2023-02-15T16:07:43;40.05;;;22.45;;
67839;SDS011;54636;51.684;5.142;2023-02-15T16:10:24;40.58;;;23.30;;
67839;SDS011;54636;51.684;5.142;2023-02-15T16:12:52;38.53;;;22.77;;
67839;SDS011;54636;51.684;5.142;2023-02-15T16:15:23;39.88;;;24.60;;
67839;SDS011;54636;51.684;5.142;2023-02-15T16:17:54;36.88;;;24.17;;
67839;SDS011;54636;51.684;5.142;2023-02-15T16:20:23;43.33;;;27.45;;
67839;SDS011;54636;51.684;5.142;2023-02-15T16:22:53;52.58;;;31.85;;
67839;SDS011;54636;51.684;5.142;2023-02-15T16:28:10;40.45;;;24.38;;
67839;SDS011;54636;51.684;5.142;2023-02-15T16:30:37;35.55;;;23.83;;
67839;SDS011;54636;51.684;5.142;2023-02-15T16:33:11;36.78;;;24.00;;
67839;SDS011;54636;51.684;5.142;2023-02-15T16:36:00;36.22;;;23.25;;
67839;SDS011;54636;51.684;5.142;2023-02-15T16:38:41;33.65;;;22.63;;
67839;SDS011;54636;51.684;5.142;2023-02-15T16:43:48;31.33;;;22.85;;
67839;SDS011;54636;51.684;5.142;2023-02-15T16:46:25;37.90;;;22.30;;
67839;SDS011;54636;51.684;5.142;2023-02-15T16:48:53;36.42;;;22.63;;
67839;SDS011;54636;51.684;5.142;2023-02-15T16:51:24;39.15;;;23.90;;
67839;SDS011;54636;51.684;5.142;2023-02-15T16:53:52;37.05;;;23.40;;
67839;SDS011;54636;51.684;5.142;2023-02-15T16:56:26;42.42;;;25.10;;
67839;SDS011;54636;51.684;5.142;2023-02-15T16:58:55;41.72;;;26.63;;
67839;SDS011;54636;51.684;5.142;2023-02-15T17:01:23;44.22;;;28.02;;
67839;SDS011;54636;51.684;5.142;2023-02-15T17:03:51;37.85;;;25.30;;
67839;SDS011;54636;51.684;5.142;2023-02-15T17:06:37;46.75;;;28.70;;
67839;SDS011;54636;51.684;5.142;2023-02-15T17:09:03;50.30;;;28.27;;
67839;SDS011;54636;51.684;5.142;2023-02-15T17:11:36;45.60;;;29.17;;
67839;SDS011;54636;51.684;5.142;2023-02-15T17:16:35;49.05;;;28.02;;
67839;SDS011;54636;51.684;5.142;2023-02-15T17:19:02;45.70;;;26.48;;
67839;SDS011;54636;51.684;5.142;2023-02-15T17:21:41;40.20;;;25.15;;
67839;SDS011;54636;51.684;5.142;2023-02-15T17:24:16;42.50;;;25.02;;
67839;SDS011;54636;51.684;5.142;2023-02-15T17:26:48;42.33;;;24.30;;
67839;SDS011;54636;51.684;5.142;2023-02-15T17:31:52;38.67;;;24.95;;
67839;SDS011;54636;51.684;5.142;2023-02-15T17:37:13;40.00;;;24.30;;
67839;SDS011;54636;51.684;5.142;2023-02-15T17:42:14;36.30;;;23.73;;
67839;SDS011;54636;51.684;5.142;2023-02-15T17:44:39;41.08;;;25.27;;
67839;SDS011;54636;51.684;5.142;2023-02-15T17:47:05;46.55;;;24.30;;
67839;SDS011;54636;51.684;5.142;2023-02-15T17:49:30;44.15;;;25.52;;
67839;SDS011;54636;51.684;5.142;2023-02-15T17:51:59;46.67;;;27.52;;
67839;SDS011;54636;51.684;5.142;2023-02-15T17:54:26;50.60;;;30.55;;
67839;SDS011;54636;51.684;5.142;2023-02-15T17:57:13;47.80;;;29.38;;
67839;SDS011;54636;51.684;5.142;2023-02-15T17:59:40;44.13;;;26.02;;
67839;SDS011;54636;51.684;5.142;2023-02-15T18:02:25;46.70;;;27.02;;
67839;SDS011;54636;51.684;5.142;2023-02-15T18:05:15;50.58;;;27.08;;
67839;SDS011;54636;51.684;5.142;2023-02-15T18:07:59;47.88;;;26.13;;
67839;SDS011;54636;51.684;5.142;2023-02-15T18:10:43;45.10;;;29.33;;